Tampa, FL (33647)

8:22 PM EST en Enero 27, 2015 (GMT -0500)
Ashington Estates; Tampa Palms North | Change Station
CLOSE
Current Station
Estación meteorológica personal
Location: Tampa, FL
Altura: 41 ft
Estaciones meteorológicas cercanas

Alt 41 ft 28.13 °N, 82.39 °W | Updated 6 seconds ago

Despejado
Despejado
58.5 ° F
Sensación térmica 58.5 ° F
N
5.0
Viento Variable Viento desde ONO
Gusts 0.0 mph

Hoy
Alta -- | Baja -- ° F
--% Posibilidad de precipitaciones
Ayer
Alta -- | Baja -- ° F
Precip. -- pul
7:19 AM 6:05 PM
Cuarto creciente, 59% visible
Presión 30.01 pul
Visibilidad 10.0 Millas
Nubes Despejado
Punto de rocío 55 ° F
Humedad 89%
Precipitaciones 0.00 pul
Espesor de la nieve No disponible.
UV 0 de una escala de 12
Polen 8.90 de una escala de 12
Calidad del aire No disponible.
Flu Activity No disponible.
METAR KVDF 280115Z AUTO 32005KT 10SM CLR 16/12 A3001 RMK AO2

More Conditions Fewer Conditions

Presión 30.01 pul
Visibilidad 10.0 Millas
Nubes Despejado
Punto de rocío 55 ° F
Humedad 89%
Precipitaciones 0.00 pul
Espesor de la nieve No disponible.
UV 0 de una escala de 12
Polen 8.90 de una escala de 12
Calidad del aire No disponible.
Flu Activity No disponible.
METAR KVDF 280115Z AUTO 32005KT 10SM CLR 16/12 A3001 RMK AO2

More Conditions Fewer Conditions

10-Day Weather Forecast

Almanac

Astronomía

Jan. 27, 2015 Salida Puesta
Hora real
Crepúsculo civil
Crepúsculo náutico
Crepúsculo astronómico
Luna
Horas de luz
Horas de luz
Tomorrow will be .
, % of the Moon is Illuminated

Extremos de hoy

Máximos del estado Bajos del estado

Community

WunderPhotos

Upload Photos

1,791,024 ¡fotos cargadas!

WunderBlogs® & News

Nearby

Calidad del aire

  Calidad del aire Índice AQ Contaminante
Not available.

Grosos de nieve

Estación Profundido Altura

Actividad de terremotos

Ciudad Distance Mag. Tiempo y dato
Magnitud mínima muestra es 2,5.

Temperaturas de aguas costeras

Lugar Temperatura

Estaciones meteorológicas cercanas